Time;durP1;ratioP1;P1;durP2;ratioP2;P2;SDS_P1;SDS_P2;PMS_P1;PMS_P2;Temp;Humidity;BMP_temperature;BMP_pressure;BME280_temperature;BME280_humidity;BME280_pressure;Samples;Min_cycle;Max_cycle;Signal;HPM_P1;HPM_P2
2022/04/30 00:00:58;;;;;;;18.17;10.23;;;;;;;;;;5042699;28;20234;-83
2022/04/30 00:03:28;;;;;;;17.33;11.03;;;;;;;;;;5035471;28;20512;-83
2022/04/30 00:05:55;;;;;;;16.77;10.47;;;;;;;;;;5035678;28;20239;-85
2022/04/30 00:08:22;;;;;;;15.40;10.77;;;;;;;;;;5037442;28;20705;-84
2022/04/30 00:10:50;;;;;;;17.17;9.67;;;;;;;;;;5035976;28;20234;-83
2022/04/30 00:13:17;;;;;;;16.37;11.50;;;;;;;;;;5034827;28;20229;-85
2022/04/30 00:15:44;;;;;;;16.83;11.13;;;;;;;;;;5036706;28;20239;-84
2022/04/30 00:18:11;;;;;;;14.67;10.67;;;;;;;;;;5033404;28;20210;-85
2022/04/30 00:20:45;;;;;;;15.73;10.57;;;;;;;;;;5034753;28;20234;-83
2022/04/30 00:23:21;;;;;;;13.33;10.67;;;;;;;;;;5037318;28;20195;-84
2022/04/30 00:25:49;;;;;;;17.83;10.57;;;;;;;;;;5034909;28;20703;-85
2022/04/30 00:28:17;;;;;;;19.33;10.20;;;;;;;;;;5037330;28;20667;-85
2022/04/30 00:30:45;;;;;;;15.83;11.33;;;;;;;;;;5033057;28;20702;-85
2022/04/30 00:33:12;;;;;;;17.17;11.47;;;;;;;;;;5034505;28;20217;-86
2022/04/30 00:35:41;;;;;;;16.13;10.03;;;;;;;;;;5033349;28;20238;-85
2022/04/30 00:38:08;;;;;;;17.00;11.30;;;;;;;;;;5031935;28;20203;-86
2022/04/30 00:40:35;;;;;;;14.73;10.23;;;;;;;;;;5031111;28;20234;-86
2022/04/30 00:43:02;;;;;;;21.33;10.77;;;;;;;;;;5032133;28;20709;-87
2022/04/30 00:45:29;;;;;;;16.80;10.70;;;;;;;;;;5031050;28;20234;-87
2022/04/30 00:47:56;;;;;;;15.97;10.87;;;;;;;;;;5031870;28;20667;-85
2022/04/30 00:50:25;;;;;;;19.77;11.50;;;;;;;;;;5031881;28;20740;-85
2022/04/30 00:52:54;;;;;;;14.10;10.77;;;;;;;;;;5031737;28;20210;-85
2022/04/30 00:55:22;;;;;;;15.03;10.27;;;;;;;;;;5030794;28;20235;-85
2022/04/30 00:57:50;;;;;;;18.67;10.27;;;;;;;;;;5031609;28;20206;-85
2022/04/30 01:00:18;;;;;;;17.40;10.20;;;;;;;;;;5034002;28;20585;-84
2022/04/30 01:02:45;;;;;;;16.20;9.63;;;;;;;;;;5040327;28;20211;-85
2022/04/30 01:05:12;;;;;;;14.70;9.37;;;;;;;;;;5036072;28;20242;-85
2022/04/30 01:07:39;;;;;;;14.27;9.37;;;;;;;;;;5036110;28;20224;-85
2022/04/30 01:10:08;;;;;;;13.67;9.80;;;;;;;;;;5035053;28;20284;-85
2022/04/30 01:12:36;;;;;;;19.10;10.30;;;;;;;;;;5035683;28;20199;-85
2022/04/30 01:15:04;;;;;;;13.83;9.50;;;;;;;;;;5034966;28;20235;-85
2022/04/30 01:17:32;;;;;;;17.30;10.70;;;;;;;;;;5035101;28;20207;-85
2022/04/30 01:19:59;;;;;;;15.63;9.93;;;;;;;;;;5034354;28;20238;-85
2022/04/30 01:22:28;;;;;;;18.47;9.73;;;;;;;;;;5034948;28;20544;-85
2022/04/30 01:24:57;;;;;;;16.57;9.70;;;;;;;;;;5034192;28;20261;-85
2022/04/30 01:27:26;;;;;;;17.33;9.93;;;;;;;;;;5035086;28;20574;-85
2022/04/30 01:29:54;;;;;;;13.97;9.80;;;;;;;;;;5034296;28;20317;-85
2022/04/30 01:37:58;;;;;;;14.07;9.80;;;;;;;;;;5035012;28;20682;-85
2022/04/30 01:40:28;;;;;;;14.83;10.60;;;;;;;;;;5033952;28;20246;-85
2022/04/30 01:42:58;;;;;;;15.83;10.17;;;;;;;;;;5034736;28;20207;-85
2022/04/30 01:45:25;;;;;;;14.33;10.10;;;;;;;;;;5034654;28;20325;-86
2022/04/30 01:47:52;;;;;;;15.37;9.93;;;;;;;;;;5034655;28;20206;-85
2022/04/30 01:50:20;;;;;;;16.33;9.90;;;;;;;;;;5034030;28;20230;-85
2022/04/30 01:52:48;;;;;;;17.80;10.47;;;;;;;;;;5034575;28;20238;-85
2022/04/30 01:55:15;;;;;;;17.63;10.40;;;;;;;;;;5033755;28;20284;-85
2022/04/30 01:57:44;;;;;;;17.30;10.10;;;;;;;;;;5033978;28;20203;-86
2022/04/30 02:00:14;;;;;;;15.07;10.97;;;;;;;;;;5033807;28;20245;-85
2022/04/30 02:02:42;;;;;;;17.73;10.80;;;;;;;;;;5034057;28;20225;-86
2022/04/30 02:05:11;;;;;;;19.80;10.33;;;;;;;;;;5033458;28;20613;-85
2022/04/30 02:07:40;;;;;;;14.23;9.93;;;;;;;;;;5034185;28;20233;-85
2022/04/30 02:10:07;;;;;;;17.90;10.63;;;;;;;;;;5033662;28;20288;-85
2022/04/30 02:12:35;;;;;;;14.53;10.57;;;;;;;;;;5033296;28;20210;-85
2022/04/30 02:15:04;;;;;;;14.13;10.27;;;;;;;;;;5033676;28;20234;-85
2022/04/30 02:17:31;;;;;;;19.53;12.70;;;;;;;;;;5033575;28;20218;-85
2022/04/30 02:22:45;;;;;;;13.23;10.17;;;;;;;;;;5034309;28;20206;-85
2022/04/30 02:25:13;;;;;;;16.80;10.83;;;;;;;;;;5033542;28;20237;-85
2022/04/30 02:27:41;;;;;;;15.13;9.97;;;;;;;;;;5034197;28;20207;-85
2022/04/30 02:30:11;;;;;;;17.03;10.60;;;;;;;;;;5033194;28;20238;-85
2022/04/30 02:32:42;;;;;;;17.00;10.43;;;;;;;;;;5033936;28;20298;-85
2022/04/30 02:35:10;;;;;;;16.77;10.70;;;;;;;;;;5032980;28;20671;-85
2022/04/30 02:37:37;;;;;;;16.23;11.27;;;;;;;;;;5033584;28;20210;-85
2022/04/30 02:40:05;;;;;;;18.43;11.30;;;;;;;;;;5032961;28;20234;-85
2022/04/30 02:42:32;;;;;;;14.50;10.83;;;;;;;;;;5033795;28;20249;-85
2022/04/30 02:44:59;;;;;;;17.53;10.97;;;;;;;;;;5032738;28;20239;-85
2022/04/30 02:47:28;;;;;;;17.00;10.43;;;;;;;;;;5033413;28;20615;-84
2022/04/30 02:49:55;;;;;;;14.27;10.57;;;;;;;;;;5032611;28;20238;-85
2022/04/30 02:52:22;;;;;;;18.67;11.80;;;;;;;;;;5033512;28;20217;-85
2022/04/30 02:54:49;;;;;;;20.80;10.97;;;;;;;;;;5032583;28;20289;-85
2022/04/30 02:57:16;;;;;;;17.47;11.23;;;;;;;;;;5033414;28;20226;-85
2022/04/30 02:59:54;;;;;;;15.70;11.17;;;;;;;;;;5032498;28;20235;-85
2022/04/30 03:02:22;;;;;;;16.17;11.30;;;;;;;;;;5015706;28;20773;-85
2022/04/30 03:04:52;;;;;;;22.63;12.50;;;;;;;;;;5012752;28;20239;-85
2022/04/30 03:07:22;;;;;;;22.23;12.33;;;;;;;;;;5013512;28;20249;-85
2022/04/30 03:09:50;;;;;;;15.30;12.03;;;;;;;;;;5013020;28;20239;-85
2022/04/30 03:12:17;;;;;;;16.83;12.53;;;;;;;;;;5018186;28;20195;-86
2022/04/30 03:14:44;;;;;;;17.57;12.17;;;;;;;;;;5028153;28;20239;-85
2022/04/30 03:22:43;;;;;;;16.53;11.67;;;;;;;;;;5034118;28;20214;-85
2022/04/30 03:25:10;;;;;;;18.07;11.60;;;;;;;;;;5035362;28;20231;-85
2022/04/30 03:27:37;;;;;;;19.37;12.73;;;;;;;;;;5036952;28;20188;-86
2022/04/30 03:30:05;;;;;;;18.20;12.53;;;;;;;;;;5036261;28;20223;-86
2022/04/30 03:32:32;;;;;;;19.93;12.40;;;;;;;;;;5016079;28;20217;-84
2022/04/30 03:35:00;;;;;;;18.50;11.80;;;;;;;;;;5013001;28;20706;-85
2022/04/30 03:37:27;;;;;;;20.30;12.73;;;;;;;;;;5013829;28;20207;-86
2022/04/30 03:39:55;;;;;;;17.73;11.83;;;;;;;;;;5032113;28;20231;-85
2022/04/30 03:42:21;;;;;;;17.67;12.50;;;;;;;;;;5036350;28;20199;-86
2022/04/30 03:44:49;;;;;;;18.83;12.60;;;;;;;;;;5036361;28;20452;-85
2022/04/30 03:47:16;;;;;;;17.23;12.63;;;;;;;;;;5036623;28;20226;-86
2022/04/30 03:49:44;;;;;;;18.57;12.00;;;;;;;;;;5035670;28;20227;-85
2022/04/30 03:52:13;;;;;;;17.83;11.97;;;;;;;;;;5032727;28;20191;-86
2022/04/30 03:54:40;;;;;;;17.77;12.00;;;;;;;;;;5027326;28;20246;-85
2022/04/30 03:57:08;;;;;;;21.03;12.90;;;;;;;;;;5012593;28;20207;-85
2022/04/30 03:59:35;;;;;;;18.70;12.73;;;;;;;;;;5011928;28;20239;-85
2022/04/30 04:02:02;;;;;;;17.17;12.03;;;;;;;;;;5012560;28;20203;-85
2022/04/30 04:04:29;;;;;;;18.90;11.73;;;;;;;;;;5012278;28;20246;-84
2022/04/30 04:06:57;;;;;;;19.33;12.33;;;;;;;;;;5012182;28;20711;-84
2022/04/30 04:09:25;;;;;;;20.33;12.30;;;;;;;;;;5011598;28;20239;-84
2022/04/30 04:11:52;;;;;;;18.87;12.43;;;;;;;;;;5012073;28;20275;-85
2022/04/30 04:19:49;;;;;;;16.33;12.03;;;;;;;;;;5030267;28;20242;-85
2022/04/30 04:22:16;;;;;;;15.77;12.37;;;;;;;;;;5030792;28;20222;-85
2022/04/30 04:27:29;;;;;;;16.73;11.50;;;;;;;;;;5012173;28;20269;-85
2022/04/30 04:29:56;;;;;;;15.73;11.27;;;;;;;;;;5011540;28;20285;-85
2022/04/30 04:32:24;;;;;;;18.80;12.80;;;;;;;;;;5012078;28;20245;-85
2022/04/30 04:34:51;;;;;;;19.63;12.33;;;;;;;;;;5012752;28;20246;-84
2022/04/30 04:37:19;;;;;;;18.00;12.13;;;;;;;;;;5015882;28;20199;-84
2022/04/30 04:39:48;;;;;;;15.03;11.30;;;;;;;;;;5015741;28;20255;-84
2022/04/30 04:42:15;;;;;;;16.73;11.87;;;;;;;;;;5032710;28;20218;-84
2022/04/30 04:44:42;;;;;;;19.30;12.40;;;;;;;;;;5034325;28;20243;-84
2022/04/30 04:47:09;;;;;;;16.80;12.80;;;;;;;;;;5034314;28;20231;-84
2022/04/30 04:49:36;;;;;;;16.47;12.30;;;;;;;;;;5030499;28;20235;-84
2022/04/30 04:52:03;;;;;;;19.30;12.00;;;;;;;;;;5016707;28;20238;-84
2022/04/30 04:54:30;;;;;;;18.23;12.33;;;;;;;;;;5015068;28;20234;-84
2022/04/30 04:56:58;;;;;;;19.27;13.30;;;;;;;;;;5015658;28;20207;-84
2022/04/30 04:59:25;;;;;;;19.13;12.67;;;;;;;;;;5014674;28;20702;-84
2022/04/30 05:01:53;;;;;;;19.47;14.13;;;;;;;;;;5029329;28;20667;-84
2022/04/30 05:04:20;;;;;;;18.23;13.53;;;;;;;;;;5034655;28;20238;-84
2022/04/30 05:06:48;;;;;;;22.53;13.87;;;;;;;;;;5035492;28;20235;-84
2022/04/30 05:09:16;;;;;;;14.90;12.97;;;;;;;;;;5034351;28;20706;-84
2022/04/30 05:11:43;;;;;;;20.83;14.00;;;;;;;;;;5035543;28;20211;-84
2022/04/30 05:14:11;;;;;;;21.37;14.07;;;;;;;;;;5034439;28;20317;-84
2022/04/30 05:16:38;;;;;;;16.90;13.47;;;;;;;;;;5034967;28;20203;-84
2022/04/30 05:19:06;;;;;;;22.20;14.37;;;;;;;;;;5034506;28;20297;-84
2022/04/30 05:21:33;;;;;;;17.50;12.77;;;;;;;;;;5035524;28;20253;-84
2022/04/30 05:24:00;;;;;;;16.40;13.77;;;;;;;;;;5035152;28;20246;-84
2022/04/30 05:26:27;;;;;;;17.33;12.93;;;;;;;;;;5034930;28;20249;-84
2022/04/30 05:28:54;;;;;;;19.53;13.80;;;;;;;;;;5036811;28;20211;-84
2022/04/30 05:31:22;;;;;;;18.07;14.27;;;;;;;;;;5036494;28;20571;-85
2022/04/30 05:33:49;;;;;;;20.33;13.50;;;;;;;;;;5035163;28;20239;-84
2022/04/30 05:36:16;;;;;;;17.23;14.17;;;;;;;;;;5035542;28;20199;-85
2022/04/30 05:38:44;;;;;;;21.80;14.87;;;;;;;;;;5033512;28;20290;-84
2022/04/30 05:41:11;;;;;;;16.13;12.63;;;;;;;;;;5034151;28;20218;-84
2022/04/30 05:43:38;;;;;;;19.97;13.63;;;;;;;;;;5034224;28;20203;-85
2022/04/30 05:46:06;;;;;;;22.70;13.90;;;;;;;;;;5034003;28;20280;-85
2022/04/30 05:48:35;;;;;;;17.43;13.00;;;;;;;;;;5033477;28;20238;-85
2022/04/30 05:51:03;;;;;;;18.03;13.67;;;;;;;;;;5034115;28;20234;-85
2022/04/30 05:53:30;;;;;;;18.63;12.47;;;;;;;;;;5034316;28;20203;-85
2022/04/30 05:55:57;;;;;;;19.57;13.23;;;;;;;;;;5034237;28;20260;-85
2022/04/30 05:58:24;;;;;;;19.17;14.20;;;;;;;;;;5034113;28;20683;-85
2022/04/30 06:00:51;;;;;;;20.53;13.93;;;;;;;;;;5033513;28;20238;-86
2022/04/30 06:03:18;;;;;;;18.23;13.50;;;;;;;;;;5034340;28;20214;-85
2022/04/30 06:05:47;;;;;;;19.87;13.73;;;;;;;;;;5033328;28;20238;-84
2022/04/30 06:08:14;;;;;;;19.10;13.50;;;;;;;;;;5035426;28;20218;-84
2022/04/30 06:10:41;;;;;;;17.27;13.73;;;;;;;;;;5034665;28;20261;-84
2022/04/30 06:13:08;;;;;;;18.07;14.10;;;;;;;;;;5034880;28;20202;-84
2022/04/30 06:15:35;;;;;;;20.77;14.07;;;;;;;;;;5035072;28;20235;-85
2022/04/30 06:18:02;;;;;;;16.80;13.40;;;;;;;;;;5036453;28;20205;-84
2022/04/30 06:20:30;;;;;;;18.07;13.93;;;;;;;;;;5035363;28;20654;-85
2022/04/30 06:22:59;;;;;;;19.70;14.20;;;;;;;;;;5035384;28;20671;-85
2022/04/30 06:25:27;;;;;;;17.27;14.17;;;;;;;;;;5034418;28;20243;-85
2022/04/30 06:27:54;;;;;;;17.43;13.80;;;;;;;;;;5036261;28;20246;-85
2022/04/30 06:30:21;;;;;;;17.50;12.60;;;;;;;;;;5034330;28;20234;-85
2022/04/30 06:32:48;;;;;;;16.80;13.20;;;;;;;;;;5034513;28;20203;-86
2022/04/30 06:35:15;;;;;;;19.77;13.63;;;;;;;;;;5033579;28;20247;-85
2022/04/30 06:37:42;;;;;;;15.77;13.63;;;;;;;;;;5033954;28;20215;-85
2022/04/30 06:40:12;;;;;;;16.93;13.53;;;;;;;;;;5033437;28;20270;-84
2022/04/30 06:42:40;;;;;;;17.63;12.10;;;;;;;;;;5034339;28;20210;-85
2022/04/30 06:45:08;;;;;;;17.70;12.27;;;;;;;;;;5033784;28;20239;-85
2022/04/30 06:47:35;;;;;;;16.73;13.00;;;;;;;;;;5034202;28;20234;-85
2022/04/30 06:50:02;;;;;;;17.80;13.67;;;;;;;;;;5034572;28;20300;-85
2022/04/30 06:52:30;;;;;;;18.87;13.40;;;;;;;;;;5035263;28;20693;-84
2022/04/30 06:57:44;;;;;;;17.73;13.33;;;;;;;;;;5035655;28;20570;-85
2022/04/30 07:02:55;;;;;;;16.70;13.60;;;;;;;;;;5039061;28;20293;-82
2022/04/30 07:05:22;;;;;;;21.07;13.77;;;;;;;;;;5041272;28;20869;-82
2022/04/30 07:07:49;;;;;;;17.27;12.67;;;;;;;;;;5039866;28;20231;-84
2022/04/30 07:10:16;;;;;;;17.80;13.10;;;;;;;;;;5038162;28;20235;-82
2022/04/30 07:12:44;;;;;;;15.57;13.67;;;;;;;;;;5039642;28;20215;-83
2022/04/30 07:15:12;;;;;;;17.33;13.10;;;;;;;;;;5038498;28;20269;-83
2022/04/30 07:17:39;;;;;;;19.13;13.53;;;;;;;;;;5038306;28;20207;-84
2022/04/30 07:20:07;;;;;;;19.37;13.80;;;;;;;;;;5038435;28;20234;-82
2022/04/30 07:22:34;;;;;;;15.67;13.17;;;;;;;;;;5037785;28;20241;-82
2022/04/30 07:25:01;;;;;;;18.67;13.50;;;;;;;;;;5039579;28;20234;-83
2022/04/30 07:27:28;;;;;;;17.63;14.33;;;;;;;;;;5038543;28;20237;-84
2022/04/30 07:29:57;;;;;;;17.33;13.13;;;;;;;;;;5036587;28;20246;-84
2022/04/30 07:32:24;;;;;;;17.97;13.87;;;;;;;;;;5038112;28;20207;-84
2022/04/30 07:34:51;;;;;;;18.97;14.40;;;;;;;;;;5037027;28;20722;-83
2022/04/30 07:37:18;;;;;;;16.43;12.97;;;;;;;;;;5038003;28;20203;-84
2022/04/30 07:39:45;;;;;;;16.13;13.03;;;;;;;;;;5037292;28;20238;-83
2022/04/30 07:42:12;;;;;;;15.77;11.93;;;;;;;;;;5037953;28;20217;-83
2022/04/30 07:44:39;;;;;;;17.90;12.63;;;;;;;;;;5038557;28;20623;-82
2022/04/30 07:47:08;;;;;;;17.77;12.67;;;;;;;;;;5039864;28;20230;-82
2022/04/30 07:49:36;;;;;;;17.50;12.50;;;;;;;;;;5039348;28;20321;-83
2022/04/30 07:52:03;;;;;;;15.67;12.33;;;;;;;;;;5039096;28;20210;-82
2022/04/30 07:54:30;;;;;;;16.23;12.80;;;;;;;;;;5038651;28;20234;-83
2022/04/30 07:56:59;;;;;;;15.70;12.57;;;;;;;;;;5038902;28;20187;-83
2022/04/30 07:59:26;;;;;;;14.37;12.03;;;;;;;;;;5039609;28;20234;-84
2022/04/30 08:01:53;;;;;;;17.87;11.93;;;;;;;;;;5040193;28;20206;-83
2022/04/30 08:04:22;;;;;;;13.93;11.17;;;;;;;;;;5040154;28;20384;-83
2022/04/30 08:06:49;;;;;;;15.40;11.97;;;;;;;;;;5040373;28;20246;-84
2022/04/30 08:09:16;;;;;;;15.67;11.73;;;;;;;;;;5038727;28;20615;-84
2022/04/30 08:11:43;;;;;;;12.30;10.53;;;;;;;;;;5039044;28;20198;-83
2022/04/30 08:14:10;;;;;;;14.63;11.37;;;;;;;;;;5042202;28;20238;-83
2022/04/30 08:16:37;;;;;;;14.87;11.97;;;;;;;;;;5042158;28;20214;-83
2022/04/30 08:19:04;;;;;;;13.67;11.37;;;;;;;;;;5041303;28;20246;-84
2022/04/30 08:21:32;;;;;;;13.47;11.43;;;;;;;;;;5042819;28;20210;-83
2022/04/30 08:23:59;;;;;;;14.90;11.03;;;;;;;;;;5042991;28;20230;-83
2022/04/30 08:26:27;;;;;;;14.50;11.37;;;;;;;;;;5042306;28;20290;-83
2022/04/30 08:28:54;;;;;;;13.23;11.40;;;;;;;;;;5042553;28;20227;-83
2022/04/30 08:31:21;;;;;;;15.17;10.83;;;;;;;;;;5044072;28;20207;-82
2022/04/30 08:33:48;;;;;;;14.90;11.57;;;;;;;;;;5043550;28;20226;-82
2022/04/30 08:36:15;;;;;;;12.60;9.77;;;;;;;;;;5043001;28;20222;-83
2022/04/30 08:38:43;;;;;;;15.77;11.50;;;;;;;;;;5042665;28;20203;-83
2022/04/30 08:41:11;;;;;;;14.87;10.60;;;;;;;;;;5044480;28;20211;-82
2022/04/30 08:43:40;;;;;;;17.27;11.93;;;;;;;;;;5042012;28;20224;-83
2022/04/30 08:46:07;;;;;;;18.23;11.30;;;;;;;;;;5041631;28;20276;-82
2022/04/30 08:48:34;;;;;;;13.57;11.17;;;;;;;;;;5040113;28;20231;-85
2022/04/30 08:51:02;;;;;;;12.67;10.60;;;;;;;;;;5040050;28;20260;-83
2022/04/30 08:53:29;;;;;;;13.30;10.37;;;;;;;;;;5040748;28;20277;-80
2022/04/30 08:55:58;;;;;;;10.87;9.77;;;;;;;;;;5040535;28;20242;-82
2022/04/30 08:58:25;;;;;;;12.10;10.23;;;;;;;;;;5043082;28;20211;-81
2022/04/30 09:00:52;;;;;;;12.53;10.20;;;;;;;;;;5037934;28;20230;-81
2022/04/30 09:03:20;;;;;;;14.57;10.43;;;;;;;;;;5023088;28;20214;-81
2022/04/30 09:05:48;;;;;;;11.57;10.37;;;;;;;;;;5023184;28;20239;-82
2022/04/30 09:08:16;;;;;;;10.77;9.27;;;;;;;;;;5024277;28;20227;-81
2022/04/30 09:10:43;;;;;;;12.97;8.97;;;;;;;;;;5024489;28;20731;-82
2022/04/30 09:13:12;;;;;;;13.27;10.33;;;;;;;;;;5024870;28;20214;-81
2022/04/30 09:15:40;;;;;;;11.47;9.40;;;;;;;;;;5025944;28;20242;-82
2022/04/30 09:18:08;;;;;;;11.70;9.80;;;;;;;;;;5024696;28;20298;-81
2022/04/30 09:20:45;;;;;;;10.47;9.37;;;;;;;;;;5025316;28;20703;-82
2022/04/30 09:23:23;;;;;;;12.23;10.33;;;;;;;;;;5031024;28;20222;-81
2022/04/30 09:25:55;;;;;;;10.57;9.10;;;;;;;;;;5029558;28;20231;-81
2022/04/30 09:28:27;;;;;;;10.83;9.37;;;;;;;;;;5028610;28;20234;-82
2022/04/30 09:31:05;;;;;;;10.53;9.23;;;;;;;;;;5027862;28;20242;-81
2022/04/30 09:33:32;;;;;;;12.03;9.37;;;;;;;;;;5027840;28;20221;-82
2022/04/30 09:38:48;;;;;;;11.23;9.97;;;;;;;;;;5027042;28;20211;-80
2022/04/30 09:41:15;;;;;;;13.40;10.00;;;;;;;;;;5027526;28;20215;-81
2022/04/30 09:43:43;;;;;;;11.77;10.57;;;;;;;;;;5026746;28;20207;-81
2022/04/30 09:46:11;;;;;;;12.10;9.73;;;;;;;;;;5026782;28;20203;-81
2022/04/30 09:54:07;;;;;;;11.10;9.50;;;;;;;;;;5027809;28;20298;-81
2022/04/30 09:56:36;;;;;;;12.80;10.90;;;;;;;;;;5025999;28;20238;-81
2022/04/30 09:59:06;;;;;;;10.43;9.07;;;;;;;;;;5026378;28;20261;-81
2022/04/30 10:01:34;;;;;;;11.03;9.63;;;;;;;;;;5036993;28;20203;-81
2022/04/30 10:04:07;;;;;;;12.63;9.27;;;;;;;;;;5045247;28;20593;-83
2022/04/30 10:06:34;;;;;;;11.43;9.80;;;;;;;;;;5035233;28;20241;-85
2022/04/30 10:09:02;;;;;;;10.73;9.33;;;;;;;;;;5034139;28;20238;-84
2022/04/30 10:11:32;;;;;;;12.43;9.67;;;;;;;;;;5035733;28;20207;-83
2022/04/30 10:14:14;;;;;;;10.60;9.50;;;;;;;;;;5034816;28;20219;-84
2022/04/30 10:16:55;;;;;;;11.20;9.63;;;;;;;;;;5034976;28;20667;-83
2022/04/30 10:19:23;;;;;;;11.70;9.30;;;;;;;;;;5035797;28;20313;-83
2022/04/30 10:22:05;;;;;;;11.20;8.73;;;;;;;;;;5037808;28;20246;-82
2022/04/30 10:24:34;;;;;;;10.23;8.93;;;;;;;;;;5039138;28;20242;-82
2022/04/30 10:27:01;;;;;;;12.43;9.13;;;;;;;;;;5039190;28;20206;-83
2022/04/30 10:29:29;;;;;;;12.87;9.87;;;;;;;;;;5037910;28;20249;-82
2022/04/30 10:31:56;;;;;;;9.43;7.93;;;;;;;;;;5038605;28;20211;-82
2022/04/30 10:34:29;;;;;;;9.83;8.63;;;;;;;;;;5037989;28;20235;-83
2022/04/30 10:36:58;;;;;;;11.53;8.77;;;;;;;;;;5040182;28;20230;-82
2022/04/30 10:39:26;;;;;;;10.77;9.13;;;;;;;;;;5039121;28;20240;-83
2022/04/30 10:41:53;;;;;;;9.00;8.10;;;;;;;;;;5042091;28;20191;-84
2022/04/30 10:44:32;;;;;;;9.97;8.40;;;;;;;;;;5040391;28;20313;-82
2022/04/30 10:47:13;;;;;;;10.07;8.63;;;;;;;;;;5041568;28;20206;-81
2022/04/30 10:49:40;;;;;;;10.10;8.27;;;;;;;;;;5039779;28;20238;-82
2022/04/30 10:52:10;;;;;;;9.60;8.30;;;;;;;;;;5041336;28;20302;-81
2022/04/30 10:54:40;;;;;;;9.53;8.33;;;;;;;;;;5040751;28;20246;-83
2022/04/30 10:57:07;;;;;;;11.63;8.90;;;;;;;;;;5042731;28;20714;-82
2022/04/30 10:59:35;;;;;;;14.13;9.37;;;;;;;;;;5041406;28;20242;-82
2022/04/30 11:02:02;;;;;;;9.90;8.83;;;;;;;;;;5042496;28;20624;-82
2022/04/30 11:04:30;;;;;;;9.57;8.57;;;;;;;;;;5041356;28;20271;-82
2022/04/30 11:06:57;;;;;;;10.70;9.07;;;;;;;;;;5043157;28;20290;-81
2022/04/30 11:09:25;;;;;;;10.60;8.57;;;;;;;;;;5042920;28;20314;-81
2022/04/30 11:11:52;;;;;;;10.50;8.93;;;;;;;;;;5043293;28;20773;-83
2022/04/30 11:14:21;;;;;;;11.07;7.80;;;;;;;;;;5041531;28;20290;-82
2022/04/30 11:16:50;;;;;;;9.00;8.10;;;;;;;;;;5043605;28;20207;-82
2022/04/30 11:19:18;;;;;;;12.07;9.30;;;;;;;;;;5043340;28;20946;-82
2022/04/30 11:21:48;;;;;;;9.30;8.03;;;;;;;;;;5044063;28;20245;-81
2022/04/30 11:24:24;;;;;;;9.83;8.83;;;;;;;;;;5043794;28;20238;-81
2022/04/30 11:26:54;;;;;;;9.63;7.90;;;;;;;;;;5042832;28;20260;-81
2022/04/30 11:29:22;;;;;;;10.63;7.33;;;;;;;;;;5043040;28;20257;-80
2022/04/30 11:31:52;;;;;;;10.13;8.13;;;;;;;;;;5044800;28;20750;-81
2022/04/30 11:34:20;;;;;;;9.47;7.20;;;;;;;;;;5043948;28;20753;-82
2022/04/30 11:36:48;;;;;;;9.93;7.50;;;;;;;;;;5043646;28;20207;-82
2022/04/30 11:39:15;;;;;;;10.53;7.97;;;;;;;;;;5042920;28;20235;-83
2022/04/30 11:41:43;;;;;;;8.43;7.53;;;;;;;;;;5044854;28;20211;-81
2022/04/30 11:44:10;;;;;;;9.30;7.40;;;;;;;;;;5043384;28;20265;-82
2022/04/30 11:46:38;;;;;;;9.77;8.00;;;;;;;;;;5044060;28;20219;-82
2022/04/30 11:49:09;;;;;;;8.33;7.53;;;;;;;;;;5043363;28;20253;-82
2022/04/30 11:51:37;;;;;;;8.10;7.30;;;;;;;;;;5043262;28;20211;-81
2022/04/30 11:54:05;;;;;;;8.63;7.40;;;;;;;;;;5043728;28;20246;-80
2022/04/30 11:56:32;;;;;;;8.87;7.87;;;;;;;;;;5044286;28;20210;-81
2022/04/30 11:58:59;;;;;;;8.30;7.50;;;;;;;;;;5043360;28;20236;-82
2022/04/30 12:01:27;;;;;;;10.07;7.30;;;;;;;;;;5033420;28;20203;-81
2022/04/30 12:03:56;;;;;;;9.27;7.43;;;;;;;;;;5021483;28;20235;-81
2022/04/30 12:06:25;;;;;;;8.67;7.30;;;;;;;;;;5019101;28;20207;-81
2022/04/30 12:08:52;;;;;;;8.47;7.07;;;;;;;;;;5020702;28;20231;-80
2022/04/30 12:11:20;;;;;;;9.07;8.17;;;;;;;;;;5021002;28;20215;-81
2022/04/30 12:13:57;;;;;;;9.73;8.07;;;;;;;;;;5018912;28;20238;-81
2022/04/30 12:16:24;;;;;;;8.30;7.10;;;;;;;;;;5020509;28;20202;-82
2022/04/30 12:24:43;;;;;;;9.23;7.40;;;;;;;;;;5019301;28;20359;-81
2022/04/30 12:27:10;;;;;;;9.17;7.50;;;;;;;;;;5020590;28;20191;-82
2022/04/30 12:29:38;;;;;;;8.87;7.97;;;;;;;;;;5019212;28;20239;-81
2022/04/30 12:32:05;;;;;;;12.27;7.23;;;;;;;;;;5019813;28;20312;-82
2022/04/30 12:34:38;;;;;;;9.57;7.97;;;;;;;;;;5018835;28;20239;-82
2022/04/30 12:37:07;;;;;;;10.27;7.60;;;;;;;;;;5019768;28;20686;-81
2022/04/30 12:39:34;;;;;;;8.53;7.43;;;;;;;;;;5018517;28;20235;-82
2022/04/30 12:42:01;;;;;;;9.40;7.73;;;;;;;;;;5018585;28;20313;-81
2022/04/30 12:44:29;;;;;;;10.70;7.73;;;;;;;;;;5017772;28;20239;-82
2022/04/30 12:46:57;;;;;;;8.93;7.93;;;;;;;;;;5018958;28;20219;-82
2022/04/30 12:49:24;;;;;;;10.10;7.80;;;;;;;;;;5017643;28;20250;-82
2022/04/30 12:51:51;;;;;;;7.67;6.97;;;;;;;;;;5019127;28;20215;-81
2022/04/30 12:54:19;;;;;;;10.33;8.47;;;;;;;;;;5017960;28;20242;-82
2022/04/30 12:56:47;;;;;;;10.10;7.33;;;;;;;;;;5019173;28;20218;-82
2022/04/30 12:59:16;;;;;;;10.90;7.17;;;;;;;;;;5020295;28;20238;-82
2022/04/30 13:01:43;;;;;;;8.13;7.33;;;;;;;;;;5033840;28;20284;-83
2022/04/30 13:04:11;;;;;;;13.07;8.53;;;;;;;;;;5038277;28;20601;-82
2022/04/30 13:06:38;;;;;;;9.47;7.80;;;;;;;;;;5038264;28;20740;-83
2022/04/30 13:14:36;;;;;;;9.23;7.40;;;;;;;;;;5038202;28;20245;-83
2022/04/30 13:17:04;;;;;;;9.93;7.57;;;;;;;;;;5037665;28;20207;-84
2022/04/30 13:19:32;;;;;;;8.43;7.57;;;;;;;;;;5036427;28;20238;-83
2022/04/30 13:21:59;;;;;;;11.77;7.73;;;;;;;;;;5037807;28;20258;-83
2022/04/30 13:24:26;;;;;;;7.83;7.03;;;;;;;;;;5037053;28;20281;-84
2022/04/30 13:26:57;;;;;;;8.83;7.93;;;;;;;;;;5038580;28;20252;-83
2022/04/30 13:29:24;;;;;;;8.63;7.73;;;;;;;;;;5037542;28;20242;-83
2022/04/30 13:31:51;;;;;;;8.67;7.40;;;;;;;;;;5037475;28;20211;-83
2022/04/30 13:34:20;;;;;;;11.23;7.47;;;;;;;;;;5037037;28;20245;-84
2022/04/30 13:36:47;;;;;;;8.93;8.03;;;;;;;;;;5037668;28;20253;-83
2022/04/30 13:39:14;;;;;;;13.33;8.07;;;;;;;;;;5038264;28;20286;-83
2022/04/30 13:41:42;;;;;;;10.33;7.80;;;;;;;;;;5038663;28;20207;-82
2022/04/30 13:44:11;;;;;;;8.83;7.70;;;;;;;;;;5040012;28;20238;-82
2022/04/30 13:46:38;;;;;;;9.70;8.10;;;;;;;;;;5040588;28;20215;-83
2022/04/30 13:49:05;;;;;;;8.93;7.57;;;;;;;;;;5040277;28;20246;-81
2022/04/30 13:51:32;;;;;;;9.97;8.63;;;;;;;;;;5041204;28;20594;-82
2022/04/30 13:54:00;;;;;;;9.13;7.83;;;;;;;;;;5039846;28;20248;-82
2022/04/30 13:56:28;;;;;;;9.10;8.03;;;;;;;;;;5038207;28;20245;-82
2022/04/30 13:58:55;;;;;;;10.70;8.43;;;;;;;;;;5038812;28;20210;-83
2022/04/30 14:01:23;;;;;;;8.93;7.97;;;;;;;;;;5028901;28;20556;-82
2022/04/30 14:03:51;;;;;;;9.40;7.80;;;;;;;;;;5017997;28;20239;-81
2022/04/30 14:06:18;;;;;;;8.43;7.63;;;;;;;;;;5020005;28;20223;-83
2022/04/30 14:08:45;;;;;;;11.03;7.60;;;;;;;;;;5020814;28;20587;-82
2022/04/30 14:11:12;;;;;;;11.70;8.73;;;;;;;;;;5023072;28;20215;-82
2022/04/30 14:16:31;;;;;;;10.33;7.67;;;;;;;;;;4984163;28;20229;-83
2022/04/30 14:18:58;;;;;;;9.10;8.27;;;;;;;;;;5021927;28;20215;-81
2022/04/30 14:21:25;;;;;;;9.90;7.97;;;;;;;;;;5021908;28;20214;-83
2022/04/30 14:23:53;;;;;;;9.73;8.27;;;;;;;;;;5021741;28;20654;-81
2022/04/30 14:26:20;;;;;;;13.73;11.00;;;;;;;;;;5025321;28;20238;-81
2022/04/30 14:28:47;;;;;;;9.20;8.07;;;;;;;;;;5034862;28;20227;-84
2022/04/30 14:31:14;;;;;;;9.57;8.03;;;;;;;;;;5035579;28;20211;-83
2022/04/30 14:33:43;;;;;;;9.63;7.67;;;;;;;;;;5035156;28;20218;-83
2022/04/30 14:36:11;;;;;;;11.53;8.00;;;;;;;;;;5035854;28;20208;-83
2022/04/30 14:38:38;;;;;;;10.40;7.93;;;;;;;;;;5035248;28;20238;-83
2022/04/30 14:41:07;;;;;;;9.17;7.50;;;;;;;;;;5035208;28;20223;-83
2022/04/30 14:43:36;;;;;;;8.47;7.57;;;;;;;;;;5034786;28;20207;-83
2022/04/30 14:46:04;;;;;;;9.60;7.50;;;;;;;;;;5034012;28;20235;-82
2022/04/30 14:48:31;;;;;;;8.43;7.57;;;;;;;;;;5023726;28;20211;-84
2022/04/30 14:50:59;;;;;;;8.63;7.50;;;;;;;;;;5023194;28;20246;-84
2022/04/30 14:53:26;;;;;;;10.17;6.90;;;;;;;;;;5020864;28;20217;-83
2022/04/30 14:55:56;;;;;;;8.10;6.87;;;;;;;;;;5018474;28;20242;-83
2022/04/30 14:58:23;;;;;;;10.63;7.57;;;;;;;;;;5019674;28;20207;-83
2022/04/30 15:00:50;;;;;;;8.17;7.03;;;;;;;;;;5018332;28;20246;-81
2022/04/30 15:03:17;;;;;;;8.50;7.60;;;;;;;;;;5020081;28;20212;-82
2022/04/30 15:05:44;;;;;;;8.33;7.20;;;;;;;;;;5018888;28;20246;-85
2022/04/30 15:08:13;;;;;;;8.80;7.90;;;;;;;;;;5018065;28;20203;-83
2022/04/30 15:10:40;;;;;;;10.87;8.03;;;;;;;;;;5019086;28;20239;-83
2022/04/30 15:13:07;;;;;;;8.63;7.77;;;;;;;;;;5021865;28;20218;-83
2022/04/30 15:15:34;;;;;;;9.17;7.57;;;;;;;;;;5020675;28;20236;-83
2022/04/30 15:18:02;;;;;;;8.13;7.33;;;;;;;;;;5021777;28;20217;-82
2022/04/30 15:20:29;;;;;;;10.00;7.20;;;;;;;;;;5018738;28;20307;-83